createdAt,value
2022-08-02T00:00:25.456Z,16.78
2022-08-02T00:01:24.491Z,16.72
2022-08-02T00:02:24.422Z,16.68
2022-08-02T00:03:24.812Z,16.64
2022-08-02T00:04:24.432Z,16.60
2022-08-02T00:05:24.412Z,16.58
2022-08-02T00:06:24.366Z,16.56
2022-08-02T00:07:24.355Z,16.50
2022-08-02T00:08:24.390Z,16.50
2022-08-02T00:09:24.346Z,16.47
2022-08-02T00:10:25.078Z,16.47
2022-08-02T00:11:24.327Z,16.42
2022-08-02T00:12:24.320Z,16.41
2022-08-02T00:13:24.294Z,16.38
2022-08-02T00:14:24.276Z,16.36
2022-08-02T00:15:24.303Z,16.35
2022-08-02T00:16:38.314Z,16.32
2022-08-02T00:17:25.248Z,16.29
2022-08-02T00:18:24.240Z,16.26
2022-08-02T00:19:24.227Z,16.24
2022-08-02T00:20:24.219Z,16.24
2022-08-02T00:21:24.228Z,16.23
2022-08-02T00:22:24.250Z,16.24
2022-08-02T00:23:24.183Z,16.24
2022-08-02T00:24:29.163Z,16.24
2022-08-02T00:25:24.170Z,16.24
2022-08-02T00:26:24.174Z,16.24
2022-08-02T00:27:24.171Z,16.24
2022-08-02T00:28:27.311Z,16.23
2022-08-02T00:29:24.118Z,16.23
2022-08-02T00:30:24.132Z,16.21
2022-08-02T00:31:24.149Z,16.17
2022-08-02T00:32:24.083Z,16.16
2022-08-02T00:34:05.593Z,16.15
2022-08-02T00:34:29.961Z,16.15
2022-08-02T00:35:25.049Z,16.15
2022-08-02T00:36:24.078Z,16.13
2022-08-02T00:37:24.031Z,16.16
2022-08-02T00:38:24.022Z,16.17
2022-08-02T00:39:34.677Z,16.20
2022-08-02T00:40:25.046Z,16.21
2022-08-02T00:41:24.006Z,16.21
2022-08-02T00:42:23.977Z,16.20
2022-08-02T00:43:23.961Z,16.16
2022-08-02T00:44:23.965Z,16.15
2022-08-02T00:46:02.103Z,16.16
2022-08-02T00:46:24.952Z,16.15
2022-08-02T00:47:23.920Z,16.13
2022-08-02T00:48:23.970Z,16.12
2022-08-02T00:49:23.941Z,16.12
2022-08-02T00:50:23.939Z,16.10
2022-08-02T00:51:23.868Z,16.05
2022-08-02T00:52:23.897Z,16.08
2022-08-02T00:53:23.854Z,16.05
2022-08-02T00:54:23.871Z,16.02
2022-08-02T00:55:30.901Z,16.01
2022-08-02T00:56:24.827Z,16.00
2022-08-02T00:57:23.813Z,16.00
2022-08-02T00:58:23.818Z,16.01
2022-08-02T00:59:23.820Z,16.04
2022-08-02T01:00:23.789Z,16.05
2022-08-02T01:01:24.832Z,16.05
2022-08-02T01:02:23.780Z,16.05
2022-08-02T01:03:23.748Z,16.09
2022-08-02T01:04:30.016Z,16.05
2022-08-02T01:05:24.741Z,16.05
2022-08-02T01:06:23.716Z,16.04
2022-08-02T01:07:23.692Z,16.02
2022-08-02T01:08:29.506Z,16.02
2022-08-02T01:09:24.682Z,16.02
2022-08-02T01:10:23.711Z,16.02
2022-08-02T01:11:23.665Z,16.01
2022-08-02T01:12:23.647Z,16.00
2022-08-02T01:13:23.893Z,15.98
2022-08-02T01:14:23.624Z,15.97
2022-08-02T01:15:23.606Z,15.98
2022-08-02T01:16:24.625Z,15.98
2022-08-02T01:17:23.594Z,16.01
2022-08-02T01:18:23.573Z,16.04
2022-08-02T01:19:23.594Z,16.09
2022-08-02T01:20:23.560Z,16.05
2022-08-02T01:21:23.545Z,16.05
2022-08-02T01:22:34.664Z,16.05
2022-08-02T01:23:24.548Z,16.04
2022-08-02T01:24:23.525Z,16.02
2022-08-02T01:25:23.506Z,16.02
2022-08-02T01:26:23.495Z,16.02
2022-08-02T01:27:23.494Z,16.04
2022-08-02T01:28:23.494Z,16.01
2022-08-02T01:29:23.469Z,15.98
2022-08-02T01:30:23.447Z,15.95
2022-08-02T01:31:23.482Z,15.94
2022-08-02T01:32:23.432Z,15.91
2022-08-02T01:33:23.409Z,15.91
2022-08-02T01:34:23.421Z,15.90
2022-08-02T01:35:24.350Z,15.91
2022-08-02T01:36:23.381Z,15.92
2022-08-02T01:37:23.360Z,15.94
2022-08-02T01:38:23.370Z,15.97
2022-08-02T01:39:26.888Z,16.00
2022-08-02T01:40:24.343Z,16.01
2022-08-02T01:41:23.322Z,16.02
2022-08-02T01:42:23.315Z,16.08
2022-08-02T01:43:23.323Z,16.05
2022-08-02T01:44:27.527Z,16.02
2022-08-02T01:45:23.315Z,16.00
2022-08-02T01:46:23.274Z,16.00
2022-08-02T01:47:23.287Z,15.98
2022-08-02T01:48:23.253Z,16.00
2022-08-02T01:49:23.306Z,16.01
2022-08-02T01:50:23.228Z,16.00
2022-08-02T01:51:23.214Z,15.97
2022-08-02T01:52:23.198Z,15.95
2022-08-02T01:53:23.355Z,15.92
2022-08-02T01:54:23.187Z,15.92
2022-08-02T01:55:23.195Z,15.92
2022-08-02T01:56:24.154Z,15.91
2022-08-02T01:57:23.148Z,15.92
2022-08-02T01:58:23.127Z,15.94
2022-08-02T01:59:23.116Z,15.94
2022-08-02T02:00:23.199Z,15.92
2022-08-02T02:01:23.200Z,15.90
2022-08-02T02:02:23.086Z,15.86
2022-08-02T02:03:23.078Z,15.84
2022-08-02T02:04:23.067Z,15.82
2022-08-02T02:05:23.061Z,15.82
2022-08-02T02:06:23.053Z,15.80
2022-08-02T02:07:23.110Z,15.80
2022-08-02T02:08:27.051Z,15.83
2022-08-02T02:09:23.025Z,15.83
2022-08-02T02:10:23.005Z,15.82
2022-08-02T02:12:11.470Z,15.82
2022-08-02T02:12:24.003Z,15.82
2022-08-02T02:13:33.203Z,15.79
2022-08-02T02:14:23.970Z,15.76
2022-08-02T02:15:22.940Z,15.73
2022-08-02T02:16:22.950Z,15.70
2022-08-02T02:18:10.879Z,15.65
2022-08-02T02:18:23.930Z,15.61
2022-08-02T02:19:22.962Z,15.58
2022-08-02T02:20:22.902Z,15.55
2022-08-02T02:21:22.931Z,15.55
2022-08-02T02:22:22.874Z,15.55
2022-08-02T02:23:25.845Z,15.57
2022-08-02T02:24:22.854Z,15.57
2022-08-02T02:25:27.550Z,15.57
2022-08-02T02:26:31.532Z,15.59
2022-08-02T02:27:23.804Z,15.58
2022-08-02T02:28:22.807Z,15.57
2022-08-02T02:29:22.795Z,15.57
2022-08-02T02:30:22.790Z,15.52
2022-08-02T02:31:22.789Z,15.47
2022-08-02T02:32:22.785Z,15.43
2022-08-02T02:33:26.426Z,15.42
2022-08-02T02:34:23.761Z,15.42
2022-08-02T02:35:22.727Z,15.39
2022-08-02T02:36:22.748Z,15.36
2022-08-02T02:37:23.673Z,15.36
2022-08-02T02:38:22.693Z,15.33
2022-08-02T02:39:22.679Z,15.33
2022-08-02T02:40:22.668Z,15.35
2022-08-02T02:41:22.658Z,15.33
2022-08-02T02:42:22.670Z,15.31
2022-08-02T02:43:22.651Z,15.31
2022-08-02T02:44:22.638Z,15.31
2022-08-02T02:45:22.642Z,15.33
2022-08-02T02:46:22.601Z,15.35
2022-08-02T02:47:22.588Z,15.36
2022-08-02T02:48:23.571Z,15.36
2022-08-02T02:49:22.603Z,15.36
2022-08-02T02:50:22.591Z,15.36
2022-08-02T02:51:22.549Z,15.36
2022-08-02T02:52:22.547Z,15.35
2022-08-02T02:53:22.527Z,15.33
2022-08-02T02:54:30.938Z,15.33
2022-08-02T02:55:23.524Z,15.31
2022-08-02T02:56:22.495Z,15.31
2022-08-02T02:57:22.493Z,15.29
2022-08-02T02:58:22.484Z,15.28
2022-08-02T02:59:23.483Z,15.27
2022-08-02T03:00:22.456Z,15.25
2022-08-02T03:01:55.401Z,15.22
2022-08-02T03:02:23.426Z,15.21
2022-08-02T03:03:22.445Z,15.19
2022-08-02T03:04:22.407Z,15.18
2022-08-02T03:05:22.446Z,15.14
2022-08-02T03:06:22.402Z,15.11
2022-08-02T03:07:22.367Z,15.10
2022-08-02T03:08:22.356Z,15.07
2022-08-02T03:09:22.362Z,15.07
2022-08-02T03:10:22.379Z,15.07
2022-08-02T03:11:22.337Z,15.07
2022-08-02T03:12:24.055Z,15.06
2022-08-02T03:13:22.363Z,15.06
2022-08-02T03:14:22.328Z,15.06
2022-08-02T03:15:22.297Z,15.03
2022-08-02T03:16:22.295Z,15.02
2022-08-02T03:17:22.266Z,15.02
2022-08-02T03:18:22.251Z,15.00
2022-08-02T03:19:22.259Z,15.00
2022-08-02T03:20:22.308Z,14.99
2022-08-02T03:21:22.288Z,14.99
2022-08-02T03:22:22.198Z,14.99
2022-08-02T03:23:22.227Z,14.97
2022-08-02T03:24:27.680Z,14.96
2022-08-02T03:25:23.193Z,14.94
2022-08-02T03:26:22.155Z,14.96
2022-08-02T03:27:22.143Z,14.96
2022-08-02T03:28:22.133Z,14.94
2022-08-02T03:29:22.273Z,14.94
2022-08-02T03:30:22.122Z,14.92
2022-08-02T03:31:22.125Z,14.91
2022-08-02T03:32:22.096Z,14.91
2022-08-02T03:33:22.093Z,14.91
2022-08-02T03:34:22.081Z,14.89
2022-08-02T03:35:24.180Z,14.89
2022-08-02T03:36:22.043Z,14.89
2022-08-02T03:37:22.070Z,14.92
2022-08-02T03:38:22.026Z,14.92
2022-08-02T03:39:22.007Z,14.92
2022-08-02T03:40:22.000Z,14.97
2022-08-02T03:41:22.985Z,14.99
2022-08-02T03:42:22.013Z,14.99
2022-08-02T03:43:21.965Z,14.99
2022-08-02T03:44:21.976Z,14.96
2022-08-02T03:45:21.954Z,14.94
2022-08-02T03:46:21.978Z,14.91
2022-08-02T03:47:21.930Z,14.88
2022-08-02T03:48:34.896Z,14.88
2022-08-02T03:49:22.962Z,14.88
2022-08-02T03:50:21.885Z,14.88
2022-08-02T03:51:21.878Z,14.86
2022-08-02T03:52:21.865Z,14.85
2022-08-02T03:53:21.886Z,14.85
2022-08-02T03:54:21.841Z,14.86
2022-08-02T03:55:21.865Z,14.86
2022-08-02T03:56:23.545Z,14.86
2022-08-02T03:57:21.833Z,14.86
2022-08-02T03:58:21.799Z,14.86
2022-08-02T03:59:21.813Z,14.84
2022-08-02T04:00:21.812Z,14.85
2022-08-02T04:01:21.789Z,14.86
2022-08-02T04:02:21.815Z,14.89
2022-08-02T04:03:21.742Z,14.89
2022-08-02T04:04:21.728Z,14.89
2022-08-02T04:05:21.777Z,14.86
2022-08-02T04:06:27.153Z,14.88
2022-08-02T04:08:34.574Z,14.88
2022-08-02T04:08:35.856Z,14.88
2022-08-02T04:09:23.681Z,14.89
2022-08-02T04:10:21.690Z,14.88
2022-08-02T04:11:21.653Z,14.86
2022-08-02T04:12:21.646Z,14.88
2022-08-02T04:13:21.637Z,14.86
2022-08-02T04:14:21.678Z,14.85
2022-08-02T04:15:21.604Z,14.84
2022-08-02T04:16:21.606Z,14.81
2022-08-02T04:17:21.582Z,14.81
2022-08-02T04:18:21.568Z,14.79
2022-08-02T04:19:21.602Z,14.79
2022-08-02T04:20:21.582Z,14.77
2022-08-02T04:21:21.559Z,14.78
2022-08-02T04:22:21.549Z,14.77
2022-08-02T04:23:21.540Z,14.77
2022-08-02T04:24:24.527Z,14.73
2022-08-02T04:25:21.513Z,14.72
2022-08-02T04:26:26.921Z,14.72
2022-08-02T04:28:15.692Z,14.70
2022-08-02T04:28:27.629Z,14.70
2022-08-02T04:29:22.519Z,14.72
2022-08-02T04:30:21.455Z,14.73
2022-08-02T04:31:22.420Z,14.73
2022-08-02T04:32:21.468Z,14.77
2022-08-02T04:33:21.434Z,14.78
2022-08-02T04:34:21.413Z,14.78
2022-08-02T04:35:21.394Z,14.82
2022-08-02T04:36:30.692Z,14.84
2022-08-02T04:37:22.394Z,14.88
2022-08-02T04:38:21.349Z,14.89
2022-08-02T04:39:21.386Z,14.94
2022-08-02T04:40:21.333Z,14.96
2022-08-02T04:41:21.324Z,14.99
2022-08-02T04:42:21.330Z,15.00
2022-08-02T04:43:21.296Z,15.00
2022-08-02T04:44:22.227Z,15.00
2022-08-02T04:45:21.287Z,15.02
2022-08-02T04:46:21.275Z,15.03
2022-08-02T04:47:54.039Z,15.04
2022-08-02T04:48:22.237Z,15.06
2022-08-02T04:49:21.328Z,15.07
2022-08-02T04:50:21.226Z,15.06
2022-08-02T04:51:21.219Z,15.07
2022-08-02T04:52:22.194Z,15.09
2022-08-02T04:53:21.189Z,15.09
2022-08-02T04:54:21.197Z,15.10
2022-08-02T04:55:21.190Z,15.10
2022-08-02T04:56:21.147Z,15.10
2022-08-02T04:57:21.140Z,15.14
2022-08-02T04:58:39.937Z,15.14
2022-08-02T04:59:22.143Z,15.14
2022-08-02T05:00:21.135Z,15.18
2022-08-02T05:01:21.116Z,15.19
2022-08-02T05:02:21.075Z,15.22
2022-08-02T05:03:21.069Z,15.24
2022-08-02T05:04:21.081Z,15.25
2022-08-02T05:05:21.081Z,15.28
2022-08-02T05:06:21.055Z,15.28
2022-08-02T05:07:21.060Z,15.33
2022-08-02T05:08:21.049Z,15.37
2022-08-02T05:09:21.002Z,15.40
2022-08-02T05:10:21.004Z,15.46
2022-08-02T05:11:20.985Z,15.51
2022-08-02T05:12:20.989Z,15.54
2022-08-02T05:13:20.958Z,15.57
2022-08-02T05:14:20.964Z,15.58
2022-08-02T05:15:20.943Z,15.64
2022-08-02T05:16:20.926Z,15.65
2022-08-02T05:17:21.924Z,15.72
2022-08-02T05:18:20.930Z,15.73
2022-08-02T05:19:20.946Z,15.77
2022-08-02T05:20:20.888Z,15.83
2022-08-02T05:21:20.905Z,15.88
2022-08-02T05:22:20.871Z,15.91
2022-08-02T05:23:20.849Z,15.95
2022-08-02T05:24:20.848Z,16.00
2022-08-02T05:25:20.879Z,16.04
2022-08-02T05:26:20.849Z,16.08
2022-08-02T05:27:21.482Z,16.10
2022-08-02T05:28:20.796Z,16.16
2022-08-02T05:29:20.790Z,16.20
2022-08-02T05:30:20.799Z,16.23
2022-08-02T05:31:20.769Z,16.23
2022-08-02T05:32:20.758Z,16.28
2022-08-02T05:33:20.751Z,16.31
2022-08-02T05:34:20.802Z,16.33
2022-08-02T05:35:20.719Z,16.36
2022-08-02T05:36:21.599Z,16.41
2022-08-02T05:37:20.702Z,16.43
2022-08-02T05:38:24.487Z,16.46
2022-08-02T05:39:21.714Z,16.50
2022-08-02T05:40:25.377Z,16.54
2022-08-02T05:41:21.666Z,16.56
2022-08-02T05:42:20.645Z,16.61
2022-08-02T05:43:20.993Z,16.66
2022-08-02T05:44:20.623Z,16.69
2022-08-02T05:45:20.675Z,16.75
2022-08-02T05:46:20.598Z,16.78
2022-08-02T05:47:20.615Z,16.81
2022-08-02T05:48:20.596Z,16.86
2022-08-02T05:49:20.620Z,16.90
2022-08-02T05:50:20.577Z,16.93
2022-08-02T05:51:20.584Z,16.97
2022-08-02T05:52:20.525Z,17.02
2022-08-02T05:53:20.525Z,17.06
2022-08-02T05:54:20.496Z,17.08
2022-08-02T05:55:20.504Z,17.12
2022-08-02T05:56:20.507Z,17.15
2022-08-02T05:57:20.487Z,17.19
2022-08-02T05:58:20.470Z,17.24
2022-08-02T05:59:20.527Z,17.27
2022-08-02T06:00:20.440Z,17.30
2022-08-02T06:01:20.503Z,17.33
2022-08-02T06:02:20.719Z,17.36
2022-08-02T06:03:20.408Z,17.39
2022-08-02T06:04:20.401Z,17.44
2022-08-02T06:05:20.402Z,17.48
2022-08-02T06:06:20.393Z,17.51
2022-08-02T06:07:20.421Z,17.54
2022-08-02T06:08:20.372Z,17.60
2022-08-02T06:09:26.977Z,17.65
2022-08-02T06:10:21.334Z,17.70
2022-08-02T06:11:20.355Z,17.76
2022-08-02T06:12:20.313Z,17.79
2022-08-02T06:13:20.321Z,17.83
2022-08-02T06:14:20.296Z,17.87
2022-08-02T06:15:20.273Z,17.92
2022-08-02T06:16:32.345Z,17.97
2022-08-02T06:17:21.285Z,18.01
2022-08-02T06:18:28.027Z,18.05
2022-08-02T06:19:21.244Z,18.10
2022-08-02T06:20:20.214Z,18.18
2022-08-02T06:22:32.820Z,18.22
2022-08-02T06:22:34.022Z,18.26
2022-08-02T06:23:23.639Z,18.31
2022-08-02T06:24:20.195Z,18.35
2022-08-02T06:25:49.695Z,18.38
2022-08-02T06:26:21.166Z,18.43
2022-08-02T06:27:20.243Z,18.49
2022-08-02T06:28:20.142Z,18.55
2022-08-02T06:29:20.121Z,18.59
2022-08-02T06:30:20.111Z,18.63
2022-08-02T06:31:20.099Z,18.70
2022-08-02T06:32:20.078Z,18.77
2022-08-02T06:33:20.100Z,18.80
2022-08-02T06:34:20.066Z,18.86
2022-08-02T06:35:20.058Z,18.89
2022-08-02T06:36:20.064Z,18.95
2022-08-02T06:37:20.030Z,19.00
2022-08-02T06:38:20.083Z,19.07
2022-08-02T06:39:20.015Z,19.09
2022-08-02T06:40:20.013Z,19.12
2022-08-02T06:41:19.980Z,19.15
2022-08-02T06:42:27.038Z,19.19
2022-08-02T06:43:20.992Z,19.24
2022-08-02T06:44:46.000Z,19.29
2022-08-02T06:45:20.947Z,19.31
2022-08-02T06:47:09.129Z,19.36
2022-08-02T06:47:20.916Z,19.39
2022-08-02T06:48:19.908Z,19.44
2022-08-02T06:49:19.965Z,19.48
2022-08-02T06:50:19.904Z,19.48
2022-08-02T06:51:19.867Z,19.51
2022-08-02T06:52:22.302Z,19.54
2022-08-02T06:53:20.859Z,19.58
2022-08-02T06:54:40.839Z,19.63
2022-08-02T06:55:19.865Z,19.66
2022-08-02T06:56:19.815Z,19.67
2022-08-02T06:57:19.806Z,19.70
2022-08-02T06:58:19.836Z,19.74
2022-08-02T06:59:19.870Z,19.76
2022-08-02T07:00:19.786Z,19.82
2022-08-02T07:01:19.977Z,19.85
2022-08-02T07:02:20.744Z,19.88
2022-08-02T07:03:19.762Z,19.91
2022-08-02T07:04:20.347Z,19.95
2022-08-02T07:05:19.709Z,20.00
2022-08-02T07:06:19.708Z,20.04
2022-08-02T07:07:19.740Z,20.09
2022-08-02T07:08:19.736Z,20.11
2022-08-02T07:09:21.354Z,20.18
2022-08-02T07:10:19.681Z,20.19
2022-08-02T07:11:19.661Z,20.24
2022-08-02T07:12:19.644Z,20.28
2022-08-02T07:13:19.643Z,20.32
2022-08-02T07:14:19.643Z,20.36
2022-08-02T07:15:19.645Z,20.40
2022-08-02T07:16:19.603Z,20.43
2022-08-02T07:17:19.596Z,20.47
2022-08-02T07:18:19.601Z,20.50
2022-08-02T07:19:19.573Z,20.58
2022-08-02T07:20:19.582Z,20.63
2022-08-02T07:21:19.611Z,20.67
2022-08-02T07:22:20.539Z,20.70
2022-08-02T07:23:19.545Z,20.72
2022-08-02T07:24:19.516Z,20.77
2022-08-02T07:25:19.533Z,20.81
2022-08-02T07:26:19.487Z,20.84
2022-08-02T07:27:19.486Z,20.88
2022-08-02T07:28:24.361Z,20.93
2022-08-02T07:29:20.485Z,20.96
2022-08-02T07:30:19.490Z,20.99
2022-08-02T07:31:19.425Z,21.00
2022-08-02T07:32:19.441Z,21.05
2022-08-02T07:33:38.458Z,21.06
2022-08-02T07:34:20.398Z,21.09
2022-08-02T07:35:19.948Z,21.14
2022-08-02T07:36:22.815Z,21.15
2022-08-02T07:37:35.711Z,21.18
2022-08-02T07:38:20.378Z,21.22
2022-08-02T07:39:19.345Z,21.25
2022-08-02T07:40:19.960Z,21.30
2022-08-02T07:41:19.348Z,21.32
2022-08-02T07:42:19.320Z,21.36
2022-08-02T07:43:19.310Z,21.39
2022-08-02T07:44:19.323Z,21.45
2022-08-02T07:45:19.321Z,21.48
2022-08-02T07:46:19.285Z,21.51
2022-08-02T07:47:19.254Z,21.55
2022-08-02T07:48:19.337Z,21.58
2022-08-02T07:49:19.266Z,21.62
2022-08-02T07:50:19.233Z,21.67
2022-08-02T07:51:19.225Z,21.70
2022-08-02T07:52:19.282Z,21.73
2022-08-02T07:53:19.231Z,21.77
2022-08-02T07:54:19.187Z,21.82
2022-08-02T07:55:19.167Z,21.88
2022-08-02T07:56:19.195Z,21.91
2022-08-02T07:57:19.146Z,21.96
2022-08-02T07:58:19.137Z,22.00
2022-08-02T07:59:19.118Z,22.04
2022-08-02T08:00:19.118Z,22.07
2022-08-02T08:01:19.268Z,22.10
2022-08-02T08:02:19.137Z,22.13
2022-08-02T08:03:19.102Z,22.18
2022-08-02T08:04:19.079Z,22.22
2022-08-02T08:05:19.060Z,22.28
2022-08-02T08:06:19.081Z,22.32
2022-08-02T08:07:20.060Z,22.38
2022-08-02T08:08:19.085Z,22.41
2022-08-02T08:09:19.021Z,22.45
2022-08-02T08:10:19.019Z,22.47
2022-08-02T08:11:18.997Z,22.50
2022-08-02T08:12:19.247Z,22.55
2022-08-02T08:13:18.973Z,22.59
2022-08-02T08:14:19.001Z,22.65
2022-08-02T08:15:18.957Z,22.69
2022-08-02T08:16:18.944Z,22.75
2022-08-02T08:17:18.976Z,22.80
2022-08-02T08:18:18.982Z,22.83
2022-08-02T08:19:18.934Z,22.85
2022-08-02T08:20:18.931Z,22.87
2022-08-02T08:21:18.887Z,22.90
2022-08-02T08:22:18.878Z,22.91
2022-08-02T08:23:18.868Z,22.94
2022-08-02T08:24:18.870Z,22.98
2022-08-02T08:25:18.881Z,23.03
2022-08-02T08:26:18.839Z,23.09
2022-08-02T08:27:18.815Z,23.15
2022-08-02T08:28:18.850Z,23.18
2022-08-02T08:29:18.997Z,23.25
2022-08-02T08:30:18.805Z,23.32
2022-08-02T08:31:18.812Z,23.36
2022-08-02T08:32:19.145Z,23.43
2022-08-02T08:33:18.781Z,23.44
2022-08-02T08:34:18.774Z,23.50
2022-08-02T08:35:18.750Z,23.50
2022-08-02T08:36:18.770Z,23.50
2022-08-02T08:37:18.918Z,23.50
2022-08-02T08:38:18.733Z,23.51
2022-08-02T08:39:18.690Z,23.54
2022-08-02T08:40:19.363Z,23.54
2022-08-02T08:41:18.682Z,23.55
2022-08-02T08:42:19.355Z,23.58
2022-08-02T08:43:18.643Z,23.65
2022-08-02T08:44:18.644Z,23.66
2022-08-02T08:45:18.654Z,23.69
2022-08-02T08:46:18.640Z,23.74
2022-08-02T08:47:18.644Z,23.80
2022-08-02T08:48:25.758Z,23.83
2022-08-02T08:49:19.652Z,23.84
2022-08-02T08:50:24.089Z,23.91
2022-08-02T08:51:19.577Z,23.95
2022-08-02T08:52:18.574Z,24.01
2022-08-02T08:53:18.570Z,24.03
2022-08-02T08:54:18.606Z,24.08
2022-08-02T08:55:18.522Z,24.11
2022-08-02T08:56:18.518Z,24.16
2022-08-02T08:57:18.486Z,24.17
2022-08-02T08:58:18.495Z,24.21
2022-08-02T08:59:18.509Z,24.23
2022-08-02T09:00:18.542Z,24.23
2022-08-02T09:01:18.513Z,24.26
2022-08-02T09:02:21.405Z,24.28
2022-08-02T09:03:19.444Z,24.28
2022-08-02T09:04:18.461Z,24.29
2022-08-02T09:05:18.414Z,24.32
2022-08-02T09:06:18.393Z,24.36
2022-08-02T09:07:18.396Z,24.36
2022-08-02T09:08:18.385Z,24.39
2022-08-02T09:09:18.371Z,24.38
2022-08-02T09:10:18.478Z,24.35
2022-08-02T09:11:18.361Z,24.36
2022-08-02T09:12:18.391Z,24.39
2022-08-02T09:13:38.390Z,24.42
2022-08-02T09:14:19.420Z,24.45
2022-08-02T09:15:18.326Z,24.48
2022-08-02T09:16:18.287Z,24.50
2022-08-02T09:17:18.293Z,24.54
2022-08-02T09:18:18.266Z,24.55
2022-08-02T09:19:18.256Z,24.60
2022-08-02T09:20:18.292Z,24.63
2022-08-02T09:21:18.230Z,24.69
2022-08-02T09:22:18.237Z,24.74
2022-08-02T09:23:18.230Z,24.74
2022-08-02T09:24:18.218Z,24.73
2022-08-02T09:25:18.204Z,24.70
2022-08-02T09:26:18.204Z,24.73
2022-08-02T09:27:18.198Z,24.74
2022-08-02T09:28:18.162Z,24.73
2022-08-02T09:29:18.160Z,24.78
2022-08-02T09:30:18.147Z,24.84
2022-08-02T09:31:18.145Z,24.88
2022-08-02T09:32:18.122Z,24.89
2022-08-02T09:33:18.161Z,24.95
2022-08-02T09:34:19.705Z,24.99
2022-08-02T09:35:18.078Z,25.03
2022-08-02T09:36:18.082Z,25.10
2022-08-02T09:37:18.089Z,25.13
2022-08-02T09:38:18.066Z,25.18
2022-08-02T09:39:18.074Z,25.25
2022-08-02T09:40:18.047Z,25.28
2022-08-02T09:41:18.263Z,25.32
2022-08-02T09:42:18.006Z,25.33
2022-08-02T09:43:17.998Z,25.38
2022-08-02T09:44:17.994Z,25.40
2022-08-02T09:45:18.017Z,25.46
2022-08-02T09:46:17.969Z,25.50
2022-08-02T09:47:18.959Z,25.53
2022-08-02T09:48:17.949Z,25.54
2022-08-02T09:49:18.081Z,25.60
2022-08-02T09:50:18.005Z,25.63
2022-08-02T09:51:17.899Z,25.68
2022-08-02T09:52:17.923Z,25.73
2022-08-02T09:53:17.881Z,25.78
2022-08-02T09:54:17.872Z,25.84
2022-08-02T09:55:17.891Z,25.88
2022-08-02T09:56:30.190Z,25.93
2022-08-02T09:57:18.846Z,25.99
2022-08-02T09:58:17.839Z,26.05
2022-08-02T09:59:18.462Z,26.10
2022-08-02T10:00:27.034Z,26.18
2022-08-02T10:01:18.810Z,26.19
2022-08-02T10:02:22.845Z,26.19
2022-08-02T10:03:21.951Z,26.15
2022-08-02T10:04:21.741Z,26.18
2022-08-02T10:05:17.754Z,26.19
2022-08-02T10:06:17.772Z,26.23
2022-08-02T10:07:17.746Z,26.25
2022-08-02T10:08:17.742Z,26.22
2022-08-02T10:09:17.729Z,26.19
2022-08-02T10:10:17.741Z,26.15
2022-08-02T10:11:17.721Z,26.10
2022-08-02T10:12:17.680Z,26.13
2022-08-02T10:13:20.204Z,26.16
2022-08-02T10:14:17.648Z,26.21
2022-08-02T10:15:17.638Z,26.25
2022-08-02T10:16:17.668Z,26.31
2022-08-02T10:17:17.682Z,26.34
2022-08-02T10:18:37.086Z,26.40
2022-08-02T10:19:18.610Z,26.38
2022-08-02T10:20:18.594Z,26.36
2022-08-02T10:21:17.570Z,26.29
2022-08-02T10:22:19.750Z,26.21
2022-08-02T10:23:17.581Z,26.16
2022-08-02T10:24:17.551Z,26.09
2022-08-02T10:25:17.531Z,26.07
2022-08-02T10:26:17.532Z,26.05
2022-08-02T10:27:17.513Z,26.07
2022-08-02T10:28:17.578Z,26.16
2022-08-02T10:29:17.515Z,26.22
2022-08-02T10:30:17.483Z,26.31
2022-08-02T10:31:17.471Z,26.40
2022-08-02T10:32:17.484Z,26.52
2022-08-02T10:33:17.444Z,26.62
2022-08-02T10:34:17.474Z,26.75
2022-08-02T10:35:20.073Z,26.88
2022-08-02T10:36:18.418Z,26.97
2022-08-02T10:37:17.438Z,27.05
2022-08-02T10:38:17.406Z,27.15
2022-08-02T10:39:17.396Z,27.20
2022-08-02T10:40:17.372Z,27.26
2022-08-02T10:41:17.385Z,27.32
2022-08-02T10:42:17.347Z,27.32
2022-08-02T10:43:17.368Z,27.37
2022-08-02T10:44:24.783Z,27.35
2022-08-02T10:45:18.326Z,27.36
2022-08-02T10:46:17.354Z,27.36
2022-08-02T10:47:17.319Z,27.33
2022-08-02T10:48:17.318Z,27.30
2022-08-02T10:49:39.164Z,27.22
2022-08-02T10:50:18.295Z,27.14
2022-08-02T10:51:17.262Z,27.08
2022-08-02T10:52:18.272Z,27.03
2022-08-02T10:53:17.232Z,27.05
2022-08-02T10:54:17.223Z,27.11
2022-08-02T10:55:22.377Z,27.12
2022-08-02T10:56:18.205Z,27.14
2022-08-02T10:57:17.193Z,27.12
2022-08-02T10:58:17.193Z,27.11
2022-08-02T10:59:17.211Z,27.08
2022-08-02T11:00:17.337Z,27.00
2022-08-02T11:01:17.218Z,27.00
2022-08-02T11:02:17.510Z,26.99
2022-08-02T11:03:17.186Z,27.00
2022-08-02T11:04:17.113Z,27.05
2022-08-02T11:05:17.096Z,27.10
2022-08-02T11:06:25.674Z,27.14
2022-08-02T11:07:18.091Z,27.22
2022-08-02T11:08:17.069Z,27.36
2022-08-02T11:09:17.106Z,27.52
2022-08-02T11:10:17.059Z,27.64
2022-08-02T11:11:17.036Z,27.75
2022-08-02T11:12:17.044Z,27.87
2022-08-02T11:13:18.982Z,27.95
2022-08-02T11:14:17.017Z,28.01
2022-08-02T11:15:17.041Z,28.10
2022-08-02T11:16:16.991Z,28.08
2022-08-02T11:17:16.968Z,28.11
2022-08-02T11:18:16.965Z,28.14
2022-08-02T11:19:16.982Z,28.15
2022-08-02T11:20:16.959Z,28.12
2022-08-02T11:21:16.927Z,28.10
2022-08-02T11:22:16.933Z,28.05
2022-08-02T11:23:17.871Z,28.05
2022-08-02T11:24:16.898Z,28.04
2022-08-02T11:25:16.915Z,28.02
2022-08-02T11:26:16.874Z,27.98
2022-08-02T11:27:16.876Z,28.00
2022-08-02T11:28:20.719Z,28.02
2022-08-02T11:29:17.866Z,28.02
2022-08-02T11:30:16.849Z,28.04
2022-08-02T11:31:16.859Z,28.00
2022-08-02T11:32:16.820Z,27.93
2022-08-02T11:33:17.749Z,27.83
2022-08-02T11:34:37.382Z,27.77
2022-08-02T11:35:17.779Z,27.73
2022-08-02T11:36:16.780Z,27.71
2022-08-02T11:37:16.780Z,27.74
2022-08-02T11:38:16.771Z,27.75
2022-08-02T11:39:16.761Z,27.78
2022-08-02T11:40:19.810Z,27.75
2022-08-02T11:41:16.734Z,27.78
2022-08-02T11:42:17.715Z,27.83
2022-08-02T11:43:17.663Z,27.87
2022-08-02T11:44:16.691Z,27.93
2022-08-02T11:45:21.439Z,27.95
2022-08-02T11:46:17.664Z,28.00
2022-08-02T11:47:16.654Z,28.05
2022-08-02T11:48:16.646Z,28.14
2022-08-02T11:49:16.873Z,28.23
2022-08-02T11:50:16.639Z,28.32
2022-08-02T11:51:16.617Z,28.35
2022-08-02T11:52:16.733Z,28.39
2022-08-02T11:53:16.583Z,28.41
2022-08-02T11:54:16.576Z,28.44
2022-08-02T11:55:16.593Z,28.44
2022-08-02T11:56:21.744Z,28.47
2022-08-02T11:57:20.059Z,28.45
2022-08-02T11:58:16.541Z,28.44
2022-08-02T11:59:16.521Z,28.41
2022-08-02T12:00:16.549Z,28.44
2022-08-02T12:01:16.512Z,28.47
2022-08-02T12:02:16.524Z,28.51
2022-08-02T12:03:19.762Z,28.57
2022-08-02T12:04:16.491Z,28.57
2022-08-02T12:05:16.491Z,28.48
2022-08-02T12:06:16.979Z,28.41
2022-08-02T12:07:16.446Z,28.37
2022-08-02T12:08:19.280Z,28.30
2022-08-02T12:09:18.923Z,28.25
2022-08-02T12:10:18.635Z,28.19
2022-08-02T12:11:16.397Z,28.19
2022-08-02T12:12:16.389Z,28.23
2022-08-02T12:13:16.384Z,28.26
2022-08-02T12:14:16.369Z,28.27
2022-08-02T12:15:16.397Z,28.25
2022-08-02T12:16:16.344Z,28.22
2022-08-02T12:17:16.363Z,28.15
2022-08-02T12:18:16.317Z,28.08
2022-08-02T12:19:16.307Z,28.08
2022-08-02T12:20:16.311Z,28.08
2022-08-02T12:21:16.314Z,28.11
2022-08-02T12:22:16.664Z,28.15
2022-08-02T12:23:16.279Z,28.17
2022-08-02T12:24:16.288Z,28.20
2022-08-02T12:25:16.281Z,28.23
2022-08-02T12:26:18.201Z,28.29
2022-08-02T12:27:16.230Z,28.29
2022-08-02T12:28:17.906Z,28.29
2022-08-02T12:29:16.244Z,28.33
2022-08-02T12:30:17.253Z,28.42
2022-08-02T12:31:17.196Z,28.48
2022-08-02T12:32:16.205Z,28.56
2022-08-02T12:33:16.174Z,28.60
2022-08-02T12:34:16.156Z,28.60
2022-08-02T12:35:25.997Z,28.63
2022-08-02T12:36:17.156Z,28.70
2022-08-02T12:37:16.127Z,28.84
2022-08-02T12:38:16.126Z,29.01
2022-08-02T12:39:16.096Z,29.07
2022-08-02T12:40:16.095Z,29.27
2022-08-02T12:41:31.244Z,29.49
2022-08-02T12:42:17.142Z,29.72
2022-08-02T12:43:16.060Z,29.93
2022-08-02T12:44:16.050Z,30.08
2022-08-02T12:45:16.037Z,30.24
2022-08-02T12:46:16.028Z,30.30
2022-08-02T12:47:16.053Z,30.28
2022-08-02T12:48:16.014Z,30.46
2022-08-02T12:49:18.343Z,30.53
2022-08-02T12:50:15.981Z,30.57
2022-08-02T12:51:15.980Z,30.68
2022-08-02T12:52:16.349Z,30.63